Time;durP1;ratioP1;P1;durP2;ratioP2;P2;SDS_P1;SDS_P2;PMS_P1;PMS_P2;Temp;Humidity;BMP_temperature;BMP_pressure;BME280_temperature;BME280_humidity;BME280_pressure;Samples;Min_cycle;Max_cycle;Signal;HPM_P1;HPM_P2
2021/01/11 00:03:32;;;;;;;18.00;9.03;;;;;;;-4.53;100.00;98889.80;3654897;80;44511;-20
2021/01/11 00:08:38;;;;;;;18.17;8.63;;;;;;;-4.58;100.00;98879.87;3658315;80;43500;-20
2021/01/11 00:13:44;;;;;;;17.00;8.70;;;;;;;-4.60;100.00;98878.64;3597207;82;43993;-20
2021/01/11 00:18:50;;;;;;;18.97;8.93;;;;;;;-4.66;100.00;98886.28;3674688;80;44056;-20
2021/01/11 00:23:56;;;;;;;17.33;8.60;;;;;;;-4.76;100.00;98878.77;3643597;81;44096;-20
2021/01/11 00:29:01;;;;;;;17.57;8.47;;;;;;;-4.76;100.00;98882.23;3659888;81;44093;-20
2021/01/11 00:34:07;;;;;;;19.50;9.43;;;;;;;-4.77;100.00;98877.05;3659913;80;43714;-20
2021/01/11 00:39:13;;;;;;;19.00;8.53;;;;;;;-4.81;100.00;98885.02;3674151;79;43431;-20
2021/01/11 00:44:20;;;;;;;19.13;9.27;;;;;;;-4.76;100.00;98874.81;3666828;79;43409;-20
2021/01/11 00:49:26;;;;;;;15.77;8.07;;;;;;;-4.80;100.00;98867.50;3685629;79;44176;-20
2021/01/11 00:54:33;;;;;;;16.83;8.43;;;;;;;-4.82;100.00;98882.46;3671015;79;43739;-20
2021/01/11 00:59:41;;;;;;;17.60;9.30;;;;;;;-4.85;100.00;98887.81;3652691;79;26392;-20
2021/01/11 01:04:47;;;;;;;14.93;7.67;;;;;;;-4.89;100.00;98886.23;3696772;79;43685;-17
2021/01/11 01:09:52;;;;;;;17.17;8.20;;;;;;;-4.87;100.00;98893.58;3724591;78;43681;-17
2021/01/11 01:14:58;;;;;;;17.03;7.50;;;;;;;-4.91;100.00;98885.41;3716519;80;44129;-17
2021/01/11 01:20:08;;;;;;;15.10;8.00;;;;;;;-4.89;100.00;98882.28;3754636;79;44097;-17
2021/01/11 01:25:15;;;;;;;15.73;8.07;;;;;;;-4.99;100.00;98870.75;3694382;80;43722;-17
2021/01/11 01:30:23;;;;;;;16.87;8.47;;;;;;;-5.00;100.00;98854.58;3649162;79;43722;-18
2021/01/11 01:35:30;;;;;;;16.93;7.93;;;;;;;-5.04;100.00;98863.94;3694088;80;43729;-17
2021/01/11 01:40:36;;;;;;;16.87;8.07;;;;;;;-5.06;100.00;98864.47;3693826;80;44019;-18
2021/01/11 01:45:42;;;;;;;15.80;7.73;;;;;;;-5.12;100.00;98878.67;3693907;80;43716;-17
2021/01/11 01:50:48;;;;;;;20.40;8.73;;;;;;;-5.11;100.00;98875.98;3686203;80;43472;-17
2021/01/11 01:55:55;;;;;;;16.63;7.67;;;;;;;-5.09;100.00;98870.66;3659471;81;44733;-17
2021/01/11 02:01:01;;;;;;;16.33;7.43;;;;;;;-5.16;100.00;98861.28;3650780;79;44085;-17
2021/01/11 02:06:07;;;;;;;15.47;7.50;;;;;;;-5.16;100.00;98860.81;3595452;82;43689;-17
2021/01/11 02:11:17;;;;;;;15.00;7.80;;;;;;;-5.17;100.00;98868.76;3635239;81;43700;-17
2021/01/11 02:16:28;;;;;;;14.37;7.03;;;;;;;-5.16;100.00;98883.61;3630870;81;43808;-17
2021/01/11 02:22:05;;;;;;;14.40;6.67;;;;;;;-5.23;100.00;98872.92;3655754;80;43409;-17
2021/01/11 02:27:22;;;;;;;15.47;7.53;;;;;;;-5.15;100.00;98869.10;3656807;81;44036;-17
2021/01/11 02:32:29;;;;;;;15.57;7.27;;;;;;;-5.12;100.00;98872.11;3655216;81;43723;-17
2021/01/11 02:37:37;;;;;;;13.77;7.00;;;;;;;-5.17;100.00;98860.41;3666659;80;43997;-17
2021/01/11 02:42:43;;;;;;;15.03;7.00;;;;;;;-5.12;100.00;98881.30;3750160;79;43448;-17
2021/01/11 02:47:58;;;;;;;15.67;7.43;;;;;;;-5.13;100.00;98876.95;3737430;79;44001;-17
2021/01/11 02:53:08;;;;;;;13.53;6.97;;;;;;;-5.04;100.00;98874.01;3627280;80;43783;-17
2021/01/11 02:58:17;;;;;;;14.20;6.50;;;;;;;-4.99;100.00;98861.55;3710628;78;43726;-18
2021/01/11 03:03:26;;;;;;;13.03;6.57;;;;;;;-4.91;100.00;98865.70;3604987;80;43801;-18
2021/01/11 03:08:31;;;;;;;11.63;6.17;;;;;;;-4.92;100.00;98849.53;3654064;80;44042;-17
2021/01/11 03:13:38;;;;;;;13.23;6.67;;;;;;;-4.95;100.00;98846.56;3691258;79;42675;-17
2021/01/11 03:18:43;;;;;;;12.80;6.10;;;;;;;-4.97;100.00;98842.66;3670256;79;43416;-18
2021/01/11 03:23:49;;;;;;;11.03;5.80;;;;;;;-5.00;100.00;98841.44;3608989;80;44110;-18
2021/01/11 03:28:56;;;;;;;12.47;6.10;;;;;;;-4.96;100.00;98835.17;3616765;81;44870;-17
2021/01/11 03:34:03;;;;;;;10.10;5.63;;;;;;;-4.93;100.00;98821.53;3644058;80;44000;-18
2021/01/11 03:39:11;;;;;;;11.37;5.63;;;;;;;-4.98;100.00;98816.45;3649167;80;43718;-18
2021/01/11 03:44:17;;;;;;;10.53;5.63;;;;;;;-5.08;100.00;98815.05;3584206;81;44020;-17
2021/01/11 03:49:22;;;;;;;9.20;5.20;;;;;;;-4.99;100.00;98809.00;3644408;81;43342;-18
2021/01/11 03:54:29;;;;;;;10.87;5.73;;;;;;;-4.84;100.00;98805.43;3633840;80;43340;-17
2021/01/11 03:59:35;;;;;;;10.70;4.97;;;;;;;-5.02;100.00;98803.87;3675622;80;44054;-17
2021/01/11 04:04:41;;;;;;;10.27;5.30;;;;;;;-4.99;100.00;98794.55;3660340;79;43580;-17
2021/01/11 04:09:47;;;;;;;10.27;5.53;;;;;;;-4.99;100.00;98794.55;3616237;81;43459;-18
2021/01/11 04:14:52;;;;;;;11.70;5.23;;;;;;;-4.93;100.00;98791.31;3551826;82;42975;-18
2021/01/11 04:20:00;;;;;;;9.17;5.07;;;;;;;-4.96;100.00;98786.56;3656448;80;26390;-19
2021/01/11 04:25:08;;;;;;;9.30;4.60;;;;;;;-5.01;100.00;98788.52;3656245;81;43315;-19
2021/01/11 04:30:15;;;;;;;9.97;4.83;;;;;;;-5.08;100.00;98779.11;3656173;80;43169;-19
2021/01/11 04:35:22;;;;;;;10.70;5.37;;;;;;;-5.08;100.00;98792.25;3656593;81;43483;-18
2021/01/11 04:40:28;;;;;;;10.63;5.50;;;;;;;-5.11;100.00;98784.47;3656114;80;43694;-18
2021/01/11 04:45:35;;;;;;;10.00;5.07;;;;;;;-5.02;100.00;98780.23;3656841;80;44025;-18
2021/01/11 04:50:42;;;;;;;10.77;5.23;;;;;;;-5.02;100.00;98779.35;3572086;81;43413;-18
2021/01/11 04:55:48;;;;;;;9.43;4.87;;;;;;;-4.97;100.00;98782.69;3517201;83;44032;-18
2021/01/11 05:00:57;;;;;;;10.53;5.13;;;;;;;-4.93;100.00;98784.74;3591911;81;43687;-19
2021/01/11 05:06:03;;;;;;;11.13;5.57;;;;;;;-4.90;100.00;98774.97;3654197;80;44113;-19
2021/01/11 05:11:09;;;;;;;9.17;4.80;;;;;;;-4.89;100.00;98771.91;3645560;80;43951;-19
2021/01/11 05:16:22;;;;;;;9.70;5.07;;;;;;;-4.90;100.00;98767.56;3650610;79;44068;-19
2021/01/11 05:21:44;;;;;;;8.30;4.80;;;;;;;-4.85;100.00;98760.34;3553049;82;43794;-18
2021/01/11 05:26:53;;;;;;;8.57;4.20;;;;;;;-4.83;100.00;98762.03;3524189;83;43401;-18
2021/01/11 05:32:02;;;;;;;9.27;4.40;;;;;;;-4.86;100.00;98761.26;3524534;83;44010;-18
2021/01/11 05:37:08;;;;;;;8.60;4.70;;;;;;;-4.86;100.00;98749.43;3644882;80;44099;-18
2021/01/11 05:42:22;;;;;;;8.87;4.43;;;;;;;-4.81;100.00;98759.33;3648537;80;44887;-18
2021/01/11 05:47:29;;;;;;;7.73;4.10;;;;;;;-4.85;100.00;98758.59;3655699;80;44596;-18
2021/01/11 05:52:35;;;;;;;8.57;4.50;;;;;;;-4.96;100.00;98756.34;3643306;80;43990;-18
2021/01/11 05:57:41;;;;;;;8.07;4.37;;;;;;;-5.00;100.00;98756.05;3636333;81;43478;-18
2021/01/11 06:02:49;;;;;;;8.30;4.30;;;;;;;-4.95;100.00;98755.91;3635207;80;43728;-18
2021/01/11 06:07:57;;;;;;;11.90;6.33;;;;;;;-5.01;100.00;98750.85;3637574;80;43660;-18
2021/01/11 06:13:04;;;;;;;11.33;5.47;;;;;;;-5.05;100.00;98754.05;3551774;82;43456;-18
2021/01/11 06:18:13;;;;;;;9.37;5.03;;;;;;;-5.07;100.00;98745.84;3673232;80;44074;-18
2021/01/11 06:23:28;;;;;;;8.20;4.57;;;;;;;-5.11;100.00;98756.88;3550887;82;44367;-18
2021/01/11 06:28:35;;;;;;;10.23;4.90;;;;;;;-5.22;100.00;98748.09;3676109;79;43941;-18
2021/01/11 06:33:42;;;;;;;7.53;4.03;;;;;;;-5.31;100.00;98754.52;3533261;83;44080;-18
2021/01/11 06:38:48;;;;;;;9.30;4.60;;;;;;;-5.38;100.00;98750.41;3590744;82;43726;-18
2021/01/11 06:43:56;;;;;;;10.03;4.87;;;;;;;-5.37;100.00;98760.44;3532759;83;43705;-18
2021/01/11 06:49:04;;;;;;;8.37;4.47;;;;;;;-5.43;100.00;98756.25;3596165;82;43400;-18
2021/01/11 06:54:12;;;;;;;7.70;4.17;;;;;;;-5.44;100.00;98766.35;3552592;83;43241;-18
2021/01/11 06:59:18;;;;;;;10.23;4.67;;;;;;;-5.37;100.00;98762.62;3626051;81;43967;-18
2021/01/11 07:04:37;;;;;;;10.07;4.70;;;;;;;-5.37;100.00;98749.49;3611716;81;44079;-18
2021/01/11 07:09:51;;;;;;;10.30;5.10;;;;;;;-5.36;100.00;98742.46;3653571;81;44027;-18
2021/01/11 07:15:06;;;;;;;9.30;4.60;;;;;;;-5.36;100.00;98753.84;3657997;80;43665;-18
2021/01/11 07:20:14;;;;;;;8.57;5.07;;;;;;;-5.44;100.00;98746.22;3584503;82;44068;-18
2021/01/11 07:25:23;;;;;;;11.57;5.90;;;;;;;-5.43;100.00;98746.62;3552981;82;44017;-17
2021/01/11 07:30:33;;;;;;;9.17;5.57;;;;;;;-5.47;100.00;98738.91;3451743;85;43416;-18
2021/01/11 07:35:40;;;;;;;8.60;4.40;;;;;;;-5.43;100.00;98732.62;3502684;83;43291;-17
2021/01/11 07:40:46;;;;;;;8.27;4.63;;;;;;;-5.45;100.00;98742.31;3544022;82;44053;-17
2021/01/11 07:46:02;;;;;;;9.67;4.63;;;;;;;-5.40;100.00;98746.97;3434209;81;10000533;-17
2021/01/11 07:51:10;;;;;;;9.43;4.80;;;;;;;-5.38;100.00;98741.65;3565287;82;44128;-16
2021/01/11 07:56:17;;;;;;;9.03;4.50;;;;;;;-5.43;100.00;98745.75;3595452;81;44053;-17
2021/01/11 08:01:23;;;;;;;8.63;4.50;;;;;;;-5.38;100.00;98747.77;3581192;82;44049;-17
2021/01/11 08:06:29;;;;;;;9.83;4.27;;;;;;;-5.30;100.00;98745.73;3593655;82;44051;-17
2021/01/11 08:11:35;;;;;;;6.27;3.77;;;;;;;-5.23;100.00;98733.71;3494533;83;44038;-17
2021/01/11 08:16:43;;;;;;;9.57;4.87;;;;;;;-5.24;100.00;98734.62;3500357;83;44115;-17
2021/01/11 08:21:57;;;;;;;8.33;4.13;;;;;;;-5.17;100.00;98737.41;3565414;82;43356;-17
2021/01/11 08:27:07;;;;;;;6.87;3.90;;;;;;;-5.12;100.00;98737.66;3578183;81;42818;-18
2021/01/11 08:32:15;;;;;;;7.63;4.37;;;;;;;-5.08;100.00;98737.08;3555781;83;43717;-18
2021/01/11 08:37:35;;;;;;;7.57;4.23;;;;;;;-4.99;100.00;98741.16;3462101;85;44375;-17
2021/01/11 08:42:41;;;;;;;8.07;4.47;;;;;;;-4.89;100.00;98739.05;3583728;81;43236;-17
2021/01/11 08:47:48;;;;;;;6.67;4.17;;;;;;;-4.87;100.00;98738.52;3614341;81;43053;-17
2021/01/11 08:52:54;;;;;;;7.40;3.80;;;;;;;-4.73;100.00;98735.39;3584335;83;43140;-18
2021/01/11 08:58:01;;;;;;;6.57;3.93;;;;;;;-4.54;100.00;98734.24;3580565;81;44089;-17
2021/01/11 09:03:07;;;;;;;9.43;4.33;;;;;;;-4.45;100.00;98733.88;3463502;84;42945;-17
2021/01/11 09:08:17;;;;;;;7.83;4.00;;;;;;;-4.21;100.00;98741.73;3465768;83;43719;-17
2021/01/11 09:13:25;;;;;;;9.60;4.70;;;;;;;-3.98;100.00;98747.84;3464349;84;43403;-17
2021/01/11 09:18:31;;;;;;;8.03;4.60;;;;;;;-3.69;100.00;98743.16;3522892;83;43792;-18
2021/01/11 09:23:38;;;;;;;6.60;3.77;;;;;;;-3.52;100.00;98734.55;3481603;85;43360;-18
2021/01/11 09:28:44;;;;;;;8.17;4.23;;;;;;;-3.41;100.00;98742.87;3500401;84;44002;-18
2021/01/11 09:33:52;;;;;;;8.07;4.00;;;;;;;-3.20;100.00;98748.14;3584505;81;43482;-17
2021/01/11 09:38:58;;;;;;;6.77;3.73;;;;;;;-2.97;100.00;98736.56;3586294;83;44149;-17
2021/01/11 09:44:04;;;;;;;8.80;4.57;;;;;;;-2.88;100.00;98728.71;3479820;85;44216;-17
2021/01/11 09:49:11;;;;;;;9.23;4.53;;;;;;;-2.77;100.00;98736.16;3588052;81;43984;-17
2021/01/11 09:54:17;;;;;;;8.50;4.80;;;;;;;-2.83;100.00;98737.28;3585608;83;44037;-17
2021/01/11 09:59:23;;;;;;;9.27;4.60;;;;;;;-2.68;100.00;98748.91;3533778;84;43686;-17
2021/01/11 10:04:31;;;;;;;8.27;4.83;;;;;;;-2.54;100.00;98758.83;3531420;83;43928;-17
2021/01/11 10:09:37;;;;;;;8.40;4.50;;;;;;;-2.29;100.00;98742.69;3451203;85;43446;-18
2021/01/11 10:14:43;;;;;;;10.50;5.53;;;;;;;-2.18;100.00;98737.80;3580186;81;43673;-17
2021/01/11 10:19:50;;;;;;;7.67;4.33;;;;;;;-2.22;100.00;98721.70;3593669;81;44161;-17
2021/01/11 10:24:56;;;;;;;8.27;4.93;;;;;;;-2.20;100.00;98726.45;3640403;81;44193;-17
2021/01/11 10:30:03;;;;;;;7.73;5.07;;;;;;;-2.08;100.00;98718.87;3592418;81;43451;-19
2021/01/11 10:35:11;;;;;;;9.97;4.67;;;;;;;-1.95;100.00;98716.47;3594863;81;44079;-18
2021/01/11 10:40:18;;;;;;;9.10;4.90;;;;;;;-1.90;100.00;98720.59;3447413;85;43453;-18
2021/01/11 10:45:27;;;;;;;9.50;5.30;;;;;;;-1.84;100.00;98704.91;3581234;81;26348;-17
2021/01/11 10:50:33;;;;;;;9.63;5.20;;;;;;;-1.61;100.00;98702.91;3485339;85;43398;-17
2021/01/11 10:55:39;;;;;;;9.63;5.20;;;;;;;-1.49;100.00;98697.00;3438924;85;43056;-17
2021/01/11 11:00:45;;;;;;;8.63;5.20;;;;;;;-1.36;100.00;98685.34;3496509;83;43345;-17
2021/01/11 11:05:52;;;;;;;7.60;4.43;;;;;;;-1.35;100.00;98684.38;3524923;83;43979;-18
2021/01/11 11:10:58;;;;;;;8.77;5.13;;;;;;;-1.11;100.00;98678.30;3602280;81;43388;-18
2021/01/11 11:16:09;;;;;;;7.77;4.93;;;;;;;-0.82;100.00;98661.31;3486391;81;245856;-18
2021/01/11 11:21:17;;;;;;;10.53;5.30;;;;;;;-0.86;100.00;98637.76;3474057;84;43726;-18
2021/01/11 11:26:23;;;;;;;9.00;5.00;;;;;;;-0.76;100.00;98634.98;3475056;84;43474;-17
2021/01/11 11:31:33;;;;;;;8.50;4.80;;;;;;;-0.97;100.00;98633.91;3475407;84;42906;-18
2021/01/11 11:36:40;;;;;;;9.80;5.50;;;;;;;-0.72;100.00;98611.89;3475920;85;44018;-18
2021/01/11 11:41:47;;;;;;;8.47;4.83;;;;;;;-0.62;100.00;98611.27;3467551;84;43442;-17
2021/01/11 11:46:54;;;;;;;7.63;4.80;;;;;;;-0.68;100.00;98605.02;3472920;85;43990;-18
2021/01/11 11:52:01;;;;;;;10.70;5.03;;;;;;;-0.55;100.00;98592.41;3474833;85;44066;-18
2021/01/11 11:57:07;;;;;;;9.70;5.03;;;;;;;-0.53;100.00;98569.38;3472916;84;44207;-18
2021/01/11 12:02:15;;;;;;;8.13;4.70;;;;;;;-0.56;100.00;98553.66;3475599;85;43386;-18
2021/01/11 12:07:23;;;;;;;7.83;4.60;;;;;;;-0.38;100.00;98552.58;3474986;85;43135;-18
2021/01/11 12:12:29;;;;;;;7.80;4.60;;;;;;;-0.22;100.00;98545.08;3443892;85;43380;-18
2021/01/11 12:17:37;;;;;;;8.57;4.30;;;;;;;-0.26;100.00;98530.30;3444908;85;26472;-19
2021/01/11 12:22:45;;;;;;;8.60;4.83;;;;;;;-0.23;100.00;98516.89;3442108;86;43384;-18
2021/01/11 12:27:51;;;;;;;8.73;5.00;;;;;;;-0.30;100.00;98514.24;3442967;85;43994;-18
2021/01/11 12:32:57;;;;;;;7.73;4.77;;;;;;;-0.24;100.00;98500.63;3443100;85;44003;-18
2021/01/11 12:38:03;;;;;;;8.03;5.27;;;;;;;-0.29;100.00;98490.31;3442909;85;43669;-18
2021/01/11 12:43:10;;;;;;;8.77;4.57;;;;;;;-0.19;100.00;98473.42;3444130;85;43721;-18
2021/01/11 12:48:16;;;;;;;8.33;4.93;;;;;;;-0.11;100.00;98471.60;3419719;85;43998;-18
2021/01/11 12:53:23;;;;;;;7.57;4.60;;;;;;;-0.06;100.00;98458.47;3466161;85;44040;-18
2021/01/11 12:58:30;;;;;;;8.07;4.80;;;;;;;-0.05;100.00;98454.88;3473405;85;43661;-17
2021/01/11 13:03:36;;;;;;;7.37;4.53;;;;;;;-0.02;100.00;98453.37;3475024;85;43689;-18
2021/01/11 13:08:42;;;;;;;7.03;4.13;;;;;;;0.01;100.00;98444.86;3442843;85;44042;-18
2021/01/11 13:13:49;;;;;;;9.20;5.20;;;;;;;-0.01;100.00;98439.18;3482672;85;44081;-18
2021/01/11 13:18:56;;;;;;;7.67;4.57;;;;;;;0.03;100.00;98450.44;3443194;85;44682;-18
2021/01/11 13:24:02;;;;;;;7.70;4.77;;;;;;;0.00;100.00;98441.38;3440809;85;44552;-18
2021/01/11 13:29:10;;;;;;;10.37;5.30;;;;;;;0.04;100.00;98452.14;3457207;85;43386;-31
2021/01/11 13:34:18;;;;;;;8.13;4.87;;;;;;;0.18;100.00;98447.80;3479282;85;43665;-18
2021/01/11 13:39:26;;;;;;;8.43;4.93;;;;;;;0.19;100.00;98448.17;3458778;85;44360;-18
2021/01/11 13:44:34;;;;;;;11.03;5.63;;;;;;;0.21;100.00;98452.91;3474829;83;43688;-18
2021/01/11 13:49:40;;;;;;;9.77;4.83;;;;;;;0.17;100.00;98452.71;3397093;86;43274;-18
2021/01/11 13:54:49;;;;;;;7.40;4.50;;;;;;;0.12;100.00;98445.89;3386282;87;44631;-18
2021/01/11 13:59:57;;;;;;;8.20;4.93;;;;;;;0.06;100.00;98442.80;3463542;84;43764;-18
2021/01/11 14:05:02;;;;;;;7.50;4.70;;;;;;;0.12;100.00;98439.75;3477874;85;43246;-18
2021/01/11 14:10:09;;;;;;;8.50;4.83;;;;;;;0.23;100.00;98433.31;3475467;84;43348;-18
2021/01/11 14:15:15;;;;;;;7.73;4.50;;;;;;;0.45;100.00;98426.66;3463871;85;42981;-18
2021/01/11 14:20:21;;;;;;;8.60;5.00;;;;;;;0.39;100.00;98425.25;3466059;85;43440;-18
2021/01/11 14:25:27;;;;;;;9.13;4.30;;;;;;;0.37;100.00;98430.28;3492857;85;44084;-18
2021/01/11 14:30:35;;;;;;;8.40;4.60;;;;;;;0.14;100.00;98437.87;3472410;85;44130;-19
2021/01/11 14:40:52;;;;;;;8.50;4.60;;;;;;;-0.09;100.00;98436.16;4025966;73;30570;-17
2021/01/11 14:45:58;;;;;;;8.23;4.63;;;;;;;-0.21;100.00;98426.31;3893771;75;43694;-18
2021/01/11 14:51:08;;;;;;;11.23;5.10;;;;;;;-0.34;100.00;98435.00;3902740;73;44026;-18
2021/01/11 14:56:14;;;;;;;10.73;5.60;;;;;;;-0.38;100.00;98424.20;3942339;73;43362;-18
2021/01/11 15:01:22;;;;;;;8.53;5.37;;;;;;;-0.44;100.00;98411.80;3910274;75;43503;-18
2021/01/11 15:06:28;;;;;;;9.40;5.40;;;;;;;-0.54;100.00;98427.41;3947653;73;43427;-19
2021/01/11 15:11:34;;;;;;;9.83;5.40;;;;;;;-0.71;100.00;98426.59;3955922;75;44627;-18
2021/01/11 15:16:43;;;;;;;10.60;5.77;;;;;;;-0.82;100.00;98427.69;3941232;75;43373;-19
2021/01/11 15:21:50;;;;;;;8.53;5.03;;;;;;;-0.91;100.00;98428.23;3928069;73;43326;-19
2021/01/11 15:26:56;;;;;;;9.07;5.00;;;;;;;-1.03;100.00;98421.39;3903342;73;44102;-18
2021/01/11 15:32:02;;;;;;;9.47;5.40;;;;;;;-1.01;100.00;98418.19;3896234;75;44271;-18
2021/01/11 15:37:11;;;;;;;10.50;5.90;;;;;;;-1.03;100.00;98408.17;3899707;73;43780;-18
2021/01/11 15:42:17;;;;;;;9.33;5.10;;;;;;;-1.06;100.00;98410.14;3948332;74;43294;-18
2021/01/11 15:47:23;;;;;;;10.57;6.13;;;;;;;-1.10;100.00;98410.77;3923257;74;44090;-18
2021/01/11 15:52:29;;;;;;;11.60;6.30;;;;;;;-1.14;100.00;98400.00;3928194;74;44046;-18
2021/01/11 15:57:35;;;;;;;9.97;5.67;;;;;;;-1.09;100.00;98396.61;3918221;73;44082;-18
2021/01/11 16:02:42;;;;;;;11.17;6.17;;;;;;;-1.16;100.00;98399.23;3941053;74;44061;-18
2021/01/11 16:07:51;;;;;;;12.77;6.77;;;;;;;-1.21;100.00;98378.36;3937606;74;44494;-18
2021/01/11 16:12:58;;;;;;;17.27;7.37;;;;;;;-1.27;100.00;98374.27;3907455;74;44031;-19
2021/01/11 16:18:03;;;;;;;12.27;6.70;;;;;;;-1.30;100.00;98364.35;3921100;74;43286;-18
2021/01/11 16:23:11;;;;;;;12.80;6.53;;;;;;;-1.46;100.00;98352.45;3930491;74;43970;-18
2021/01/11 16:28:23;;;;;;;11.53;6.57;;;;;;;-1.44;100.00;98355.41;3907704;73;43458;-19
2021/01/11 16:33:30;;;;;;;13.10;6.27;;;;;;;-1.44;100.00;98362.47;3907605;76;43423;-18
2021/01/11 16:38:36;;;;;;;12.80;7.00;;;;;;;-1.50;100.00;98349.63;3920548;74;44156;-18
2021/01/11 16:43:41;;;;;;;12.27;6.73;;;;;;;-1.59;100.00;98342.58;3907306;76;44646;-18
2021/01/11 16:48:50;;;;;;;12.10;6.27;;;;;;;-1.62;100.00;98345.42;3931241;74;44168;-16
2021/01/11 16:53:56;;;;;;;13.00;6.50;;;;;;;-1.63;100.00;98337.56;3955073;74;44002;-18
2021/01/11 16:59:03;;;;;;;13.57;6.63;;;;;;;-1.65;100.00;98348.23;3941508;73;43952;-17
2021/01/11 17:04:09;;;;;;;11.93;6.57;;;;;;;-1.63;100.00;98357.38;3915472;74;44088;-19
2021/01/11 17:09:16;;;;;;;13.03;5.93;;;;;;;-1.65;100.00;98350.87;3934687;73;43939;-17
2021/01/11 17:14:22;;;;;;;10.30;5.63;;;;;;;-1.68;100.00;98336.50;3907373;76;44107;-17
2021/01/11 17:19:28;;;;;;;11.50;5.90;;;;;;;-1.66;100.00;98347.84;3927069;74;43006;-17
2021/01/11 17:24:34;;;;;;;11.67;6.40;;;;;;;-1.63;100.00;98346.36;3905627;76;44031;-18
2021/01/11 17:29:39;;;;;;;10.37;5.67;;;;;;;-1.61;100.00;98349.77;3934693;74;44449;-17
2021/01/11 17:34:47;;;;;;;12.47;6.53;;;;;;;-1.64;100.00;98339.36;3907239;73;43729;-18
2021/01/11 17:39:54;;;;;;;11.17;6.40;;;;;;;-1.64;100.00;98330.57;3915619;74;44070;-18
2021/01/11 17:45:00;;;;;;;11.97;6.93;;;;;;;-1.66;100.00;98333.31;3904694;75;43489;-18
2021/01/11 17:50:09;;;;;;;13.27;6.70;;;;;;;-1.70;100.00;98331.77;3893837;75;43342;-18
2021/01/11 17:55:16;;;;;;;11.73;6.77;;;;;;;-1.69;100.00;98330.84;3900570;75;43650;-18
2021/01/11 18:00:24;;;;;;;13.20;6.70;;;;;;;-1.73;100.00;98309.52;3901591;75;43712;-17
2021/01/11 18:05:30;;;;;;;13.30;7.27;;;;;;;-1.74;100.00;98310.45;3867498;74;43903;-18
2021/01/11 18:10:36;;;;;;;13.07;6.77;;;;;;;-1.73;100.00;98303.75;3870065;75;44101;-18
2021/01/11 18:15:42;;;;;;;13.97;6.47;;;;;;;-1.66;100.00;98295.49;3896782;75;43690;-18
2021/01/11 18:20:49;;;;;;;13.20;7.10;;;;;;;-1.73;100.00;98275.18;3887286;75;44132;-18
2021/01/11 18:25:55;;;;;;;15.57;7.80;;;;;;;-1.76;100.00;98280.63;3875120;75;43686;-18
2021/01/11 18:31:01;;;;;;;13.27;7.50;;;;;;;-1.76;100.00;98272.70;3898960;74;44719;-18
2021/01/11 18:36:08;;;;;;;15.27;7.40;;;;;;;-1.79;100.00;98258.34;3680684;75;44043;-18
2021/01/11 18:41:14;;;;;;;14.63;7.50;;;;;;;-1.83;100.00;98243.64;3680284;78;43468;-18
2021/01/11 18:46:20;;;;;;;12.37;6.70;;;;;;;-1.82;100.00;98232.14;3592855;82;43729;-18
2021/01/11 18:51:26;;;;;;;13.67;7.47;;;;;;;-1.91;100.00;98230.87;3659540;80;43678;-18
2021/01/11 18:56:35;;;;;;;15.47;7.93;;;;;;;-1.86;100.00;98234.08;3658058;80;44104;-18
2021/01/11 19:01:44;;;;;;;14.77;7.43;;;;;;;-1.95;100.00;98231.52;3660349;81;43983;-18
2021/01/11 19:06:50;;;;;;;13.70;6.97;;;;;;;-1.95;100.00;98222.73;3584874;80;44041;-18
2021/01/11 19:11:56;;;;;;;13.67;7.50;;;;;;;-2.04;100.00;98223.64;3657899;79;43722;-18
2021/01/11 19:17:02;;;;;;;15.17;7.90;;;;;;;-2.04;100.00;98214.41;3675953;79;43604;-18
2021/01/11 19:22:10;;;;;;;17.90;8.47;;;;;;;-2.03;100.00;98198.08;3678939;78;44047;-18
2021/01/11 19:27:19;;;;;;;15.67;7.80;;;;;;;-2.04;100.00;98204.30;3642523;81;43709;-18
2021/01/11 19:32:25;;;;;;;16.90;8.30;;;;;;;-2.06;100.00;98207.52;3651635;80;43757;-18
2021/01/11 19:37:31;;;;;;;15.37;8.27;;;;;;;-2.10;100.00;98209.94;3685097;79;44480;-18
2021/01/11 19:42:39;;;;;;;17.13;8.47;;;;;;;-2.09;100.00;98201.08;3672369;78;44031;-18
2021/01/11 19:47:45;;;;;;;17.57;9.00;;;;;;;-2.07;100.00;98188.66;3684100;78;43394;-18
2021/01/11 19:52:51;;;;;;;15.57;7.67;;;;;;;-2.03;100.00;98175.19;3672345;79;43726;-17
2021/01/11 19:57:56;;;;;;;14.83;7.80;;;;;;;-2.05;100.00;98166.50;3625053;81;43133;-18
2021/01/11 20:03:02;;;;;;;17.10;9.00;;;;;;;-2.02;100.00;98178.67;3669736;79;44039;-17
2021/01/11 20:08:09;;;;;;;18.03;9.13;;;;;;;-2.00;100.00;98167.55;3679763;78;44791;-18
2021/01/11 20:13:15;;;;;;;15.33;8.17;;;;;;;-2.01;100.00;98153.97;3632642;79;44054;-17
2021/01/11 20:18:21;;;;;;;16.27;8.60;;;;;;;-2.08;100.00;98152.16;3673226;79;43709;-17
2021/01/11 20:23:27;;;;;;;17.17;9.33;;;;;;;-1.99;100.00;98141.54;3615763;81;44082;-17
2021/01/11 20:28:33;;;;;;;16.80;8.40;;;;;;;-1.91;100.00;98127.41;3670726;78;44175;-17
2021/01/11 20:33:40;;;;;;;18.73;10.37;;;;;;;-1.92;100.00;98123.07;3568988;82;44178;-17
2021/01/11 20:38:48;;;;;;;17.73;8.27;;;;;;;-1.93;100.00;98098.92;3679035;79;44496;-17
2021/01/11 20:43:55;;;;;;;17.80;9.43;;;;;;;-1.89;100.00;98112.81;3605545;79;44094;-17
2021/01/11 20:49:00;;;;;;;18.43;9.57;;;;;;;-1.86;100.00;98105.56;3642041;80;43454;-17
2021/01/11 20:54:08;;;;;;;18.50;9.40;;;;;;;-1.93;100.00;98121.84;3616895;80;43361;-18
2021/01/11 20:59:16;;;;;;;19.13;9.90;;;;;;;-1.67;100.00;98116.33;3687252;80;44083;-18
2021/01/11 21:04:23;;;;;;;17.27;8.97;;;;;;;-1.75;100.00;98096.98;3582204;81;44098;-18
2021/01/11 21:09:32;;;;;;;17.80;9.37;;;;;;;-1.73;100.00;98091.14;3591737;80;44490;-19
2021/01/11 21:14:39;;;;;;;17.57;9.43;;;;;;;-1.75;100.00;98089.05;3640446;81;43681;-18
2021/01/11 21:19:46;;;;;;;14.90;8.63;;;;;;;-1.67;100.00;98067.47;3640056;80;44093;-18
2021/01/11 21:24:53;;;;;;;14.30;8.40;;;;;;;-1.56;100.00;98060.23;3641404;80;43347;-19
2021/01/11 21:30:00;;;;;;;14.93;8.70;;;;;;;-1.40;100.00;98062.28;3654514;80;44063;-17
2021/01/11 21:35:08;;;;;;;14.30;8.30;;;;;;;-1.46;100.00;98059.17;3640641;81;44019;-17
2021/01/11 21:40:16;;;;;;;15.53;8.57;;;;;;;-1.49;100.00;98035.60;3691571;79;44026;-17
2021/01/11 21:45:23;;;;;;;13.93;7.97;;;;;;;-1.51;100.00;98029.56;3665018;80;44024;-17
2021/01/11 21:50:29;;;;;;;14.63;8.37;;;;;;;-1.45;100.00;98017.27;3694691;79;43273;-17
2021/01/11 21:55:35;;;;;;;15.20;8.03;;;;;;;-1.48;100.00;98012.20;3599224;81;43445;-17
2021/01/11 22:00:41;;;;;;;15.07;8.07;;;;;;;-1.49;100.00;98004.73;3563927;82;43432;-17
2021/01/11 22:05:47;;;;;;;15.07;8.30;;;;;;;-1.47;100.00;97970.31;3598062;81;44059;-17
2021/01/11 22:10:53;;;;;;;13.83;7.43;;;;;;;-1.49;100.00;97981.44;3613723;81;44184;-16
2021/01/11 22:15:58;;;;;;;14.00;8.13;;;;;;;-1.45;100.00;97981.61;3602083;81;43745;-16
2021/01/11 22:21:06;;;;;;;13.97;7.53;;;;;;;-1.40;100.00;97988.30;3687545;79;43350;-17
2021/01/11 22:26:12;;;;;;;13.13;7.73;;;;;;;-1.31;100.00;97977.62;3668976;79;44045;-17
2021/01/11 22:31:22;;;;;;;14.17;7.70;;;;;;;-1.19;100.00;97983.94;3699511;79;43446;-17
2021/01/11 22:36:28;;;;;;;14.30;7.70;;;;;;;-1.21;100.00;97999.50;3600765;81;43677;-17
2021/01/11 22:41:36;;;;;;;14.73;8.40;;;;;;;-1.15;100.00;97982.77;3631731;81;43362;-16
2021/01/11 22:46:42;;;;;;;14.73;8.00;;;;;;;-1.16;100.00;97974.95;3649777;80;44058;-17
2021/01/11 22:51:48;;;;;;;16.43;9.20;;;;;;;-1.08;100.00;97962.08;3633571;81;43370;-17
2021/01/11 22:56:53;;;;;;;16.73;9.03;;;;;;;-1.13;100.00;97955.77;3658546;80;43432;-17
2021/01/11 23:02:00;;;;;;;15.17;8.50;;;;;;;-1.05;100.00;97949.13;3649476;80;43356;-17
2021/01/11 23:07:10;;;;;;;17.73;9.00;;;;;;;-1.16;100.00;97941.91;3611368;80;44077;-17
2021/01/11 23:12:16;;;;;;;15.20;8.57;;;;;;;-1.16;100.00;97952.48;3640880;80;43700;-17
2021/01/11 23:17:22;;;;;;;17.50;9.40;;;;;;;-1.16;100.00;97948.52;3663228;80;44059;-17
2021/01/11 23:22:28;;;;;;;18.43;9.57;;;;;;;-1.15;100.00;97959.47;3572419;81;43995;-17
2021/01/11 23:27:34;;;;;;;18.63;10.27;;;;;;;-1.20;100.00;97954.48;3563074;81;44049;-17
2021/01/11 23:32:39;;;;;;;16.40;9.53;;;;;;;-1.14;100.00;97931.61;3650792;81;43668;-17
2021/01/11 23:37:47;;;;;;;22.47;11.80;;;;;;;-1.19;100.00;97930.21;3676622;80;43428;-16
2021/01/11 23:42:55;;;;;;;19.00;10.50;;;;;;;-1.19;100.00;97913.03;3673545;79;43766;-17
2021/01/11 23:48:01;;;;;;;20.80;11.00;;;;;;;-1.15;100.00;97894.22;3691991;79;44069;-17